sensor_id;sensor_type;location;lat;lon;timestamp;pressure;altitude;pressure_sealevel;temperature;humidity
46412;BME280;32113;42.012;24.870;2023-05-14T00:00:37;99629.94;;;16.94;49.70
46412;BME280;32113;42.012;24.870;2023-05-14T00:03:03;99630.13;;;16.86;49.81
46412;BME280;32113;42.012;24.870;2023-05-14T00:05:28;99628.53;;;16.82;49.92
46412;BME280;32113;42.012;24.870;2023-05-14T00:07:53;99627.69;;;16.81;50.59
46412;BME280;32113;42.012;24.870;2023-05-14T00:10:19;99634.56;;;16.83;50.17
46412;BME280;32113;42.012;24.870;2023-05-14T00:12:45;99622.47;;;16.83;49.88
46412;BME280;32113;42.012;24.870;2023-05-14T00:15:11;99624.22;;;16.81;49.69
46412;BME280;32113;42.012;24.870;2023-05-14T00:17:36;99613.28;;;16.71;48.93
46412;BME280;32113;42.012;24.870;2023-05-14T00:20:02;99625.19;;;16.77;48.98
46412;BME280;32113;42.012;24.870;2023-05-14T00:22:31;99614.97;;;16.72;49.06
46412;BME280;32113;42.012;24.870;2023-05-14T00:24:56;99621.88;;;16.72;49.30
46412;BME280;32113;42.012;24.870;2023-05-14T00:27:21;99610.91;;;16.63;48.70
46412;BME280;32113;42.012;24.870;2023-05-14T00:29:47;99617.75;;;16.66;48.64
46412;BME280;32113;42.012;24.870;2023-05-14T00:32:12;99615.16;;;16.66;48.50
46412;BME280;32113;42.012;24.870;2023-05-14T00:34:37;99617.03;;;16.59;48.15
46412;BME280;32113;42.012;24.870;2023-05-14T00:37:02;99613.59;;;16.59;47.56
46412;BME280;32113;42.012;24.870;2023-05-14T00:39:28;99617.19;;;16.53;47.61
46412;BME280;32113;42.012;24.870;2023-05-14T00:41:53;99619.00;;;16.49;47.79
46412;BME280;32113;42.012;24.870;2023-05-14T00:44:18;99601.66;;;16.53;47.11
46412;BME280;32113;42.012;24.870;2023-05-14T00:46:44;99605.16;;;16.50;47.08
46412;BME280;32113;42.012;24.870;2023-05-14T00:49:09;99611.25;;;16.49;47.07
46412;BME280;32113;42.012;24.870;2023-05-14T00:51:34;99613.66;;;16.55;46.46
46412;BME280;32113;42.012;24.870;2023-05-14T00:54:00;99598.94;;;16.58;46.54
46412;BME280;32113;42.012;24.870;2023-05-14T00:56:26;99592.06;;;16.57;46.77
46412;BME280;32113;42.012;24.870;2023-05-14T00:58:51;99589.69;;;16.49;46.76
46412;BME280;32113;42.012;24.870;2023-05-14T01:01:17;99582.75;;;16.49;46.30
46412;BME280;32113;42.012;24.870;2023-05-14T01:03:42;99573.28;;;16.48;46.34
46412;BME280;32113;42.012;24.870;2023-05-14T01:06:52;99571.56;;;16.49;46.57
46412;BME280;32113;42.012;24.870;2023-05-14T01:11:24;99572.63;;;16.40;47.18
46412;BME280;32113;42.012;24.870;2023-05-14T01:13:52;99570.81;;;16.44;46.51
46412;BME280;32113;42.012;24.870;2023-05-14T01:16:22;99572.56;;;16.43;46.29
46412;BME280;32113;42.012;24.870;2023-05-14T01:18:50;99576.81;;;16.46;46.29
46412;BME280;32113;42.012;24.870;2023-05-14T01:23:44;99559.50;;;16.46;46.38
46412;BME280;32113;42.012;24.870;2023-05-14T01:26:09;99556.09;;;16.46;46.21
46412;BME280;32113;42.012;24.870;2023-05-14T01:28:34;99556.84;;;16.49;45.77
46412;BME280;32113;42.012;24.870;2023-05-14T01:31:04;99567.19;;;16.51;45.92
46412;BME280;32113;42.012;24.870;2023-05-14T01:33:30;99556.84;;;16.49;46.12
46412;BME280;32113;42.012;24.870;2023-05-14T01:35:57;99555.22;;;16.45;46.20
46412;BME280;32113;42.012;24.870;2023-05-14T01:38:22;99559.47;;;16.48;46.21
46412;BME280;32113;42.012;24.870;2023-05-14T01:40:48;99550.19;;;16.40;46.38
46412;BME280;32113;42.012;24.870;2023-05-14T01:43:14;99547.69;;;16.37;46.72
46412;BME280;32113;42.012;24.870;2023-05-14T01:45:40;99545.97;;;16.36;46.94
46412;BME280;32113;42.012;24.870;2023-05-14T01:48:05;99543.41;;;16.36;46.46
46412;BME280;32113;42.012;24.870;2023-05-14T01:50:30;99541.72;;;16.34;46.32
46412;BME280;32113;42.012;24.870;2023-05-14T01:52:56;99550.44;;;16.31;46.59
46412;BME280;32113;42.012;24.870;2023-05-14T01:55:21;99549.59;;;16.29;46.66
46412;BME280;32113;42.012;24.870;2023-05-14T01:57:48;99553.91;;;16.30;46.70
46412;BME280;32113;42.012;24.870;2023-05-14T02:00:13;99554.88;;;16.26;46.87
46412;BME280;32113;42.012;24.870;2023-05-14T02:02:39;99551.50;;;16.22;47.18
46412;BME280;32113;42.012;24.870;2023-05-14T02:05:04;99536.72;;;16.27;47.54
46412;BME280;32113;42.012;24.870;2023-05-14T02:07:30;99532.44;;;16.25;47.85
46412;BME280;32113;42.012;24.870;2023-05-14T02:09:55;99530.84;;;16.21;48.05
46412;BME280;32113;42.012;24.870;2023-05-14T02:12:20;99535.16;;;16.20;48.02
46412;BME280;32113;42.012;24.870;2023-05-14T02:14:46;99531.00;;;16.14;48.30
46412;BME280;32113;42.012;24.870;2023-05-14T02:17:11;99535.38;;;16.12;47.94
46412;BME280;32113;42.012;24.870;2023-05-14T02:19:39;99545.63;;;16.15;48.29
46412;BME280;32113;42.012;24.870;2023-05-14T02:22:05;99554.28;;;16.14;48.32
46412;BME280;32113;42.012;24.870;2023-05-14T02:24:30;99557.22;;;16.02;48.68
46412;BME280;32113;42.012;24.870;2023-05-14T02:26:55;99548.63;;;16.00;48.59
46412;BME280;32113;42.012;24.870;2023-05-14T02:29:20;99544.34;;;15.99;48.79
46412;BME280;32113;42.012;24.870;2023-05-14T02:31:46;99548.72;;;15.97;48.79
46412;BME280;32113;42.012;24.870;2023-05-14T02:34:11;99557.34;;;15.96;49.00
46412;BME280;32113;42.012;24.870;2023-05-14T02:36:36;99552.97;;;15.99;49.48
46412;BME280;32113;42.012;24.870;2023-05-14T02:39:01;99544.34;;;15.99;49.79
46412;BME280;32113;42.012;24.870;2023-05-14T02:41:28;99548.91;;;15.87;50.00
46412;BME280;32113;42.012;24.870;2023-05-14T02:43:53;99543.66;;;15.89;49.92
46412;BME280;32113;42.012;24.870;2023-05-14T02:46:19;99547.22;;;15.85;49.88
46412;BME280;32113;42.012;24.870;2023-05-14T02:48:44;99542.94;;;15.84;50.20
46412;BME280;32113;42.012;24.870;2023-05-14T02:51:11;99548.94;;;15.86;50.42
46412;BME280;32113;42.012;24.870;2023-05-14T02:53:36;99546.25;;;15.89;49.93
46412;BME280;32113;42.012;24.870;2023-05-14T02:56:01;99546.19;;;15.92;49.25
46412;BME280;32113;42.012;24.870;2023-05-14T02:58:26;99550.47;;;15.93;49.17
46412;BME280;32113;42.012;24.870;2023-05-14T03:00:52;99563.56;;;15.87;49.48
46412;BME280;32113;42.012;24.870;2023-05-14T03:03:17;99573.84;;;15.90;49.86
46412;BME280;32113;42.012;24.870;2023-05-14T03:05:43;99576.38;;;15.92;50.31
46412;BME280;32113;42.012;24.870;2023-05-14T03:08:08;99589.28;;;15.93;50.35
46412;BME280;32113;42.012;24.870;2023-05-14T03:10:33;99596.22;;;15.93;50.36
46412;BME280;32113;42.012;24.870;2023-05-14T03:12:58;99597.22;;;15.85;50.50
46412;BME280;32113;42.012;24.870;2023-05-14T03:15:24;99608.34;;;15.89;50.59
46412;BME280;32113;42.012;24.870;2023-05-14T03:17:49;99604.81;;;15.95;50.72
46412;BME280;32113;42.012;24.870;2023-05-14T03:20:15;99600.41;;;15.98;50.90
46412;BME280;32113;42.012;24.870;2023-05-14T03:22:40;99607.34;;;15.98;51.12
46412;BME280;32113;42.012;24.870;2023-05-14T03:25:05;99606.38;;;16.02;51.67
46412;BME280;32113;42.012;24.870;2023-05-14T03:27:31;99603.78;;;16.02;51.51
46412;BME280;32113;42.012;24.870;2023-05-14T03:29:57;99595.97;;;16.03;51.43
46412;BME280;32113;42.012;24.870;2023-05-14T03:32:22;99597.75;;;16.01;52.00
46412;BME280;32113;42.012;24.870;2023-05-14T03:34:47;99600.50;;;15.95;52.34
46412;BME280;32113;42.012;24.870;2023-05-14T03:37:12;99603.94;;;15.94;52.95
46412;BME280;32113;42.012;24.870;2023-05-14T03:39:38;99602.25;;;15.92;52.79
46412;BME280;32113;42.012;24.870;2023-05-14T03:42:03;99608.34;;;15.89;52.56
46412;BME280;32113;42.012;24.870;2023-05-14T03:44:28;99604.03;;;15.89;53.13
46412;BME280;32113;42.012;24.870;2023-05-14T03:46:54;99611.69;;;15.96;53.79
46412;BME280;32113;42.012;24.870;2023-05-14T03:49:19;99611.69;;;15.96;54.41
46412;BME280;32113;42.012;24.870;2023-05-14T03:51:45;99614.31;;;15.93;54.62
46412;BME280;32113;42.012;24.870;2023-05-14T03:54:10;99618.69;;;15.89;54.60
46412;BME280;32113;42.012;24.870;2023-05-14T03:56:35;99634.31;;;15.86;55.19
46412;BME280;32113;42.012;24.870;2023-05-14T03:59:01;99638.56;;;15.88;54.51
46412;BME280;32113;42.012;24.870;2023-05-14T04:01:26;99639.47;;;15.87;53.93
46412;BME280;32113;42.012;24.870;2023-05-14T04:03:51;99636.06;;;15.84;54.25
46412;BME280;32113;42.012;24.870;2023-05-14T04:06:16;99648.19;;;15.83;53.63
46412;BME280;32113;42.012;24.870;2023-05-14T04:08:42;99641.41;;;15.77;53.49
46412;BME280;32113;42.012;24.870;2023-05-14T04:11:07;99640.72;;;15.69;53.09
46412;BME280;32113;42.012;24.870;2023-05-14T04:13:32;99639.88;;;15.69;52.67
46412;BME280;32113;42.012;24.870;2023-05-14T04:15:57;99643.50;;;15.60;53.27
46412;BME280;32113;42.012;24.870;2023-05-14T04:18:23;99643.41;;;15.65;53.34
46412;BME280;32113;42.012;24.870;2023-05-14T04:20:48;99647.13;;;15.53;53.05
46412;BME280;32113;42.012;24.870;2023-05-14T04:23:13;99636.69;;;15.56;53.50
46412;BME280;32113;42.012;24.870;2023-05-14T04:25:38;99634.81;;;15.62;53.93
46412;BME280;32113;42.012;24.870;2023-05-14T04:28:04;99634.94;;;15.58;54.27
46412;BME280;32113;42.012;24.870;2023-05-14T04:30:29;99635.88;;;15.54;54.63
46412;BME280;32113;42.012;24.870;2023-05-14T04:32:54;99623.84;;;15.53;54.45
46412;BME280;32113;42.012;24.870;2023-05-14T04:35:20;99619.63;;;15.48;55.07
46412;BME280;32113;42.012;24.870;2023-05-14T04:37:45;99614.34;;;15.52;55.46
46412;BME280;32113;42.012;24.870;2023-05-14T04:40:11;99617.78;;;15.54;55.73
46412;BME280;32113;42.012;24.870;2023-05-14T04:42:36;99628.00;;;15.58;55.76
46412;BME280;32113;42.012;24.870;2023-05-14T04:45:02;99635.69;;;15.63;56.37
46412;BME280;32113;42.012;24.870;2023-05-14T04:47:29;99646.81;;;15.67;56.62
46412;BME280;32113;42.012;24.870;2023-05-14T04:49:54;99650.06;;;15.75;56.63
46412;BME280;32113;42.012;24.870;2023-05-14T04:52:19;99656.03;;;15.79;56.48
46412;BME280;32113;42.012;24.870;2023-05-14T04:54:45;99659.47;;;15.79;56.81
46412;BME280;32113;42.012;24.870;2023-05-14T04:57:10;99656.72;;;15.87;56.92
46412;BME280;32113;42.012;24.870;2023-05-14T04:59:35;99652.16;;;15.98;56.56
46412;BME280;32113;42.012;24.870;2023-05-14T05:02:01;99638.22;;;16.06;56.00
46412;BME280;32113;42.012;24.870;2023-05-14T05:04:26;99631.13;;;16.14;55.24
46412;BME280;32113;42.012;24.870;2023-05-14T05:06:51;99638.44;;;15.95;56.28
46412;BME280;32113;42.012;24.870;2023-05-14T05:09:17;99634.13;;;15.95;56.86
46412;BME280;32113;42.012;24.870;2023-05-14T05:11:42;99639.00;;;16.08;57.21
46412;BME280;32113;42.012;24.870;2023-05-14T05:14:08;99624.97;;;16.18;56.85
46412;BME280;32113;42.012;24.870;2023-05-14T05:16:33;99615.34;;;16.23;55.27
46412;BME280;32113;42.012;24.870;2023-05-14T05:18:58;99619.56;;;16.27;54.29
46412;BME280;32113;42.012;24.870;2023-05-14T05:21:24;99624.88;;;16.21;54.47
46412;BME280;32113;42.012;24.870;2023-05-14T05:23:50;99629.09;;;16.25;54.19
46412;BME280;32113;42.012;24.870;2023-05-14T05:26:15;99635.97;;;16.26;54.04
46412;BME280;32113;42.012;24.870;2023-05-14T05:28:40;99641.84;;;16.33;53.46
46412;BME280;32113;42.012;24.870;2023-05-14T05:31:05;99631.44;;;16.36;53.66
46412;BME280;32113;42.012;24.870;2023-05-14T05:33:32;99637.28;;;16.45;52.70
46412;BME280;32113;42.012;24.870;2023-05-14T05:35:58;99645.88;;;16.45;52.71
46412;BME280;32113;42.012;24.870;2023-05-14T05:38:23;99650.97;;;16.50;52.77
46412;BME280;32113;42.012;24.870;2023-05-14T05:40:48;99658.56;;;16.56;51.90
46412;BME280;32113;42.012;24.870;2023-05-14T05:43:14;99654.97;;;16.62;51.53
46412;BME280;32113;42.012;24.870;2023-05-14T05:45:39;99656.47;;;16.71;51.15
46412;BME280;32113;42.012;24.870;2023-05-14T05:48:05;99664.13;;;16.75;50.92
46412;BME280;32113;42.012;24.870;2023-05-14T05:50:30;99670.84;;;16.83;50.68
46412;BME280;32113;42.012;24.870;2023-05-14T05:52:56;99664.63;;;16.90;51.04
46412;BME280;32113;42.012;24.870;2023-05-14T05:55:23;99663.66;;;16.94;50.99
46412;BME280;32113;42.012;24.870;2023-05-14T05:57:48;99668.75;;;16.95;50.81
46412;BME280;32113;42.012;24.870;2023-05-14T06:00:13;99665.31;;;16.97;50.83
46412;BME280;32113;42.012;24.870;2023-05-14T06:02:39;99666.06;;;17.00;50.07
46412;BME280;32113;42.012;24.870;2023-05-14T06:05:05;99677.22;;;17.02;50.19
46412;BME280;32113;42.012;24.870;2023-05-14T06:07:31;99685.84;;;17.04;50.13
46412;BME280;32113;42.012;24.870;2023-05-14T06:09:56;99686.63;;;17.08;50.46
46412;BME280;32113;42.012;24.870;2023-05-14T06:12:21;99693.63;;;17.04;50.47
46412;BME280;32113;42.012;24.870;2023-05-14T06:14:46;99704.72;;;17.10;50.20
46412;BME280;32113;42.012;24.870;2023-05-14T06:17:12;99703.97;;;17.06;50.14
46412;BME280;32113;42.012;24.870;2023-05-14T06:19:37;99704.75;;;17.08;50.28
46412;BME280;32113;42.012;24.870;2023-05-14T06:22:02;99706.38;;;17.12;50.10
46412;BME280;32113;42.012;24.870;2023-05-14T06:24:28;99709.16;;;17.06;49.76
46412;BME280;32113;42.012;24.870;2023-05-14T06:26:53;99698.81;;;17.03;49.61
46412;BME280;32113;42.012;24.870;2023-05-14T06:29:18;99701.41;;;17.03;49.90
46412;BME280;32113;42.012;24.870;2023-05-14T06:31:43;99699.66;;;17.05;49.71
46412;BME280;32113;42.012;24.870;2023-05-14T06:34:09;99710.91;;;17.02;50.32
46412;BME280;32113;42.012;24.870;2023-05-14T06:36:34;99724.78;;;17.01;51.78
46412;BME280;32113;42.012;24.870;2023-05-14T06:38:59;99728.19;;;17.03;52.24
46412;BME280;32113;42.012;24.870;2023-05-14T06:41:25;99733.47;;;17.00;52.30
46412;BME280;32113;42.012;24.870;2023-05-14T06:43:50;99739.53;;;16.99;52.21
46412;BME280;32113;42.012;24.870;2023-05-14T06:46:16;99743.94;;;16.95;53.64
46412;BME280;32113;42.012;24.870;2023-05-14T06:48:41;99754.59;;;16.85;54.40
46412;BME280;32113;42.012;24.870;2023-05-14T06:51:06;99761.53;;;16.83;55.05
46412;BME280;32113;42.012;24.870;2023-05-14T06:53:31;99762.41;;;16.83;55.80
46412;BME280;32113;42.012;24.870;2023-05-14T06:55:57;99779.00;;;16.74;56.15
46412;BME280;32113;42.012;24.870;2023-05-14T06:58:22;99777.41;;;16.70;56.67
46412;BME280;32113;42.012;24.870;2023-05-14T07:00:47;99792.94;;;16.70;56.24
46412;BME280;32113;42.012;24.870;2023-05-14T07:03:12;99780.28;;;16.58;57.08
46412;BME280;32113;42.012;24.870;2023-05-14T07:05:38;99772.59;;;16.53;57.50
46412;BME280;32113;42.012;24.870;2023-05-14T07:08:05;99788.97;;;16.55;58.15
46412;BME280;32113;42.012;24.870;2023-05-14T07:10:30;99783.06;;;16.48;58.94
46412;BME280;32113;42.012;24.870;2023-05-14T07:12:56;99789.13;;;16.49;58.79
46412;BME280;32113;42.012;24.870;2023-05-14T07:15:22;99790.81;;;16.50;59.87
46412;BME280;32113;42.012;24.870;2023-05-14T07:17:47;99788.44;;;16.40;60.18
46412;BME280;32113;42.012;24.870;2023-05-14T07:20:12;99787.53;;;16.41;59.69
46412;BME280;32113;42.012;24.870;2023-05-14T07:22:38;99792.06;;;16.32;60.03
46412;BME280;32113;42.012;24.870;2023-05-14T07:25:03;99785.44;;;16.20;60.49
46412;BME280;32113;42.012;24.870;2023-05-14T07:27:28;99794.13;;;16.15;60.81
46412;BME280;32113;42.012;24.870;2023-05-14T07:29:54;99785.69;;;16.09;61.22
46412;BME280;32113;42.012;24.870;2023-05-14T07:32:19;99778.22;;;15.92;62.77
46412;BME280;32113;42.012;24.870;2023-05-14T07:34:44;99773.38;;;15.76;63.59
46412;BME280;32113;42.012;24.870;2023-05-14T07:37:10;99768.13;;;15.79;64.04
46412;BME280;32113;42.012;24.870;2023-05-14T07:39:35;99755.97;;;15.84;63.91
46412;BME280;32113;42.012;24.870;2023-05-14T07:42:00;99750.66;;;15.89;63.13
46412;BME280;32113;42.012;24.870;2023-05-14T07:44:26;99751.41;;;15.97;62.91
46412;BME280;32113;42.012;24.870;2023-05-14T07:46:51;99748.66;;;16.03;63.79
46412;BME280;32113;42.012;24.870;2023-05-14T07:49:16;99740.25;;;15.94;61.99
46412;BME280;32113;42.012;24.870;2023-05-14T07:51:41;99737.78;;;15.87;61.23
46412;BME280;32113;42.012;24.870;2023-05-14T07:54:07;99744.84;;;15.79;61.10
46412;BME280;32113;42.012;24.870;2023-05-14T07:56:32;99745.00;;;15.71;62.06
46412;BME280;32113;42.012;24.870;2023-05-14T07:58:57;99750.94;;;15.76;62.94
46412;BME280;32113;42.012;24.870;2023-05-14T08:01:23;99752.44;;;15.87;64.23
46412;BME280;32113;42.012;24.870;2023-05-14T08:03:48;99743.69;;;15.94;64.48
46412;BME280;32113;42.012;24.870;2023-05-14T08:06:13;99739.28;;;15.99;63.13
46412;BME280;32113;42.012;24.870;2023-05-14T08:08:38;99744.28;;;16.09;63.73
46412;BME280;32113;42.012;24.870;2023-05-14T08:11:04;99749.28;;;16.15;65.39
46412;BME280;32113;42.012;24.870;2023-05-14T08:13:29;99754.44;;;16.17;65.54
46412;BME280;32113;42.012;24.870;2023-05-14T08:15:54;99756.84;;;16.26;65.40
46412;BME280;32113;42.012;24.870;2023-05-14T08:18:20;99754.06;;;16.34;64.34
46412;BME280;32113;42.012;24.870;2023-05-14T08:20:45;99757.44;;;16.36;64.50
46412;BME280;32113;42.012;24.870;2023-05-14T08:23:11;99758.25;;;16.39;63.82
46412;BME280;32113;42.012;24.870;2023-05-14T08:25:36;99763.31;;;16.44;62.27
46412;BME280;32113;42.012;24.870;2023-05-14T08:28:01;99765.91;;;16.44;63.57
46412;BME280;32113;42.012;24.870;2023-05-14T08:30:26;99771.25;;;16.38;64.27
46412;BME280;32113;42.012;24.870;2023-05-14T08:32:52;99791.09;;;16.37;65.16
46412;BME280;32113;42.012;24.870;2023-05-14T08:35:17;99800.59;;;16.37;64.92
46412;BME280;32113;42.012;24.870;2023-05-14T08:37:43;99815.25;;;16.38;64.73
46412;BME280;32113;42.012;24.870;2023-05-14T08:40:08;99823.25;;;16.27;65.77
46412;BME280;32113;42.012;24.870;2023-05-14T08:42:34;99830.25;;;16.23;65.38
46412;BME280;32113;42.012;24.870;2023-05-14T08:45:02;99836.28;;;16.22;64.50
46412;BME280;32113;42.012;24.870;2023-05-14T08:47:27;99842.38;;;16.20;64.78
46412;BME280;32113;42.012;24.870;2023-05-14T08:49:59;99841.56;;;16.18;65.59
46412;BME280;32113;42.012;24.870;2023-05-14T08:52:25;99824.44;;;16.10;65.51
46412;BME280;32113;42.012;24.870;2023-05-14T08:54:51;99818.50;;;16.07;65.97
46412;BME280;32113;42.012;24.870;2023-05-14T08:57:17;99801.34;;;16.01;67.10
46412;BME280;32113;42.012;24.870;2023-05-14T08:59:44;99820.31;;;16.01;67.97
46412;BME280;32113;42.012;24.870;2023-05-14T09:02:09;99828.06;;;16.03;68.24
46412;BME280;32113;42.012;24.870;2023-05-14T09:04:37;99827.34;;;15.93;68.81
46412;BME280;32113;42.012;24.870;2023-05-14T09:07:02;99824.78;;;15.93;69.08
46412;BME280;32113;42.012;24.870;2023-05-14T09:09:28;99826.44;;;15.97;68.96
46412;BME280;32113;42.012;24.870;2023-05-14T09:11:53;99823.78;;;16.02;69.62
46412;BME280;32113;42.012;24.870;2023-05-14T09:14:19;99821.91;;;16.09;69.39
46412;BME280;32113;42.012;24.870;2023-05-14T09:16:45;99812.44;;;16.08;68.91
46412;BME280;32113;42.012;24.870;2023-05-14T09:19:11;99805.75;;;15.97;69.39
46412;BME280;32113;42.012;24.870;2023-05-14T09:21:37;99798.88;;;15.93;69.40
46412;BME280;32113;42.012;24.870;2023-05-14T09:24:02;99796.28;;;15.96;69.05
46412;BME280;32113;42.012;24.870;2023-05-14T09:26:30;99793.59;;;16.01;68.02
46412;BME280;32113;42.012;24.870;2023-05-14T09:28:58;99796.13;;;16.04;66.62
46412;BME280;32113;42.012;24.870;2023-05-14T09:31:31;99797.00;;;16.03;67.80
46412;BME280;32113;42.012;24.870;2023-05-14T09:33:56;99782.41;;;16.00;68.79
46412;BME280;32113;42.012;24.870;2023-05-14T09:36:22;99774.53;;;16.05;69.45
46412;BME280;32113;42.012;24.870;2023-05-14T09:38:52;99780.50;;;16.09;69.65
46412;BME280;32113;42.012;24.870;2023-05-14T09:41:17;99777.94;;;16.07;68.57
46412;BME280;32113;42.012;24.870;2023-05-14T09:43:43;99786.69;;;16.01;68.47
46412;BME280;32113;42.012;24.870;2023-05-14T09:46:08;99791.13;;;15.93;69.12
46412;BME280;32113;42.012;24.870;2023-05-14T09:48:33;99784.13;;;16.00;69.54
46412;BME280;32113;42.012;24.870;2023-05-14T09:50:59;99766.03;;;15.98;69.28
46412;BME280;32113;42.012;24.870;2023-05-14T09:53:24;99758.25;;;15.98;69.61
46412;BME280;32113;42.012;24.870;2023-05-14T09:55:50;99758.16;;;16.05;69.93
46412;BME280;32113;42.012;24.870;2023-05-14T09:58:15;99758.03;;;16.09;69.40
46412;BME280;32113;42.012;24.870;2023-05-14T10:00:44;99748.56;;;16.10;68.54
46412;BME280;32113;42.012;24.870;2023-05-14T10:03:10;99738.16;;;16.11;67.72
46412;BME280;32113;42.012;24.870;2023-05-14T10:05:37;99725.06;;;16.18;67.04
46412;BME280;32113;42.012;24.870;2023-05-14T10:08:04;99723.25;;;16.21;67.85
46412;BME280;32113;42.012;24.870;2023-05-14T10:10:32;99725.66;;;16.29;69.25
46412;BME280;32113;42.012;24.870;2023-05-14T10:13:02;99729.84;;;16.36;68.44
46412;BME280;32113;42.012;24.870;2023-05-14T10:18:02;99734.19;;;16.34;66.64
46412;BME280;32113;42.012;24.870;2023-05-14T10:20:27;99732.44;;;16.35;67.32
46412;BME280;32113;42.012;24.870;2023-05-14T10:22:53;99731.66;;;16.33;68.12
46412;BME280;32113;42.012;24.870;2023-05-14T10:25:19;99736.75;;;16.36;68.73
46412;BME280;32113;42.012;24.870;2023-05-14T10:27:44;99733.34;;;16.34;67.91
46412;BME280;32113;42.012;24.870;2023-05-14T10:30:10;99731.59;;;16.34;67.85
46412;BME280;32113;42.012;24.870;2023-05-14T10:32:38;99733.50;;;16.27;68.82
46412;BME280;32113;42.012;24.870;2023-05-14T10:35:15;99727.44;;;16.28;69.14
46412;BME280;32113;42.012;24.870;2023-05-14T10:37:41;99730.03;;;16.27;69.15
46412;BME280;32113;42.012;24.870;2023-05-14T10:40:08;99733.34;;;16.34;69.37
46412;BME280;32113;42.012;24.870;2023-05-14T10:42:34;99741.13;;;16.34;69.96
46412;BME280;32113;42.012;24.870;2023-05-14T10:45:03;99735.03;;;16.35;70.11
46412;BME280;32113;42.012;24.870;2023-05-14T10:47:31;99736.75;;;16.36;70.28
46412;BME280;32113;42.012;24.870;2023-05-14T10:49:57;99724.47;;;16.44;69.94
46412;BME280;32113;42.012;24.870;2023-05-14T10:52:23;99703.03;;;16.37;69.95
46412;BME280;32113;42.012;24.870;2023-05-14T10:54:49;99696.22;;;16.33;70.09
46412;BME280;32113;42.012;24.870;2023-05-14T10:57:19;99698.75;;;16.36;70.43
46412;BME280;32113;42.012;24.870;2023-05-14T10:59:45;99703.09;;;16.34;69.72
46412;BME280;32113;42.012;24.870;2023-05-14T11:04:53;99685.66;;;16.42;69.77
46412;BME280;32113;42.012;24.870;2023-05-14T11:07:19;99680.59;;;16.38;69.86
46412;BME280;32113;42.012;24.870;2023-05-14T11:09:47;99682.13;;;16.45;69.56
46412;BME280;32113;42.012;24.870;2023-05-14T11:12:12;99680.19;;;16.55;68.24
46412;BME280;32113;42.012;24.870;2023-05-14T11:14:38;99681.00;;;16.55;68.23
46412;BME280;32113;42.012;24.870;2023-05-14T11:17:03;99680.03;;;16.60;68.13
46412;BME280;32113;42.012;24.870;2023-05-14T11:19:29;99671.25;;;16.67;65.89
46412;BME280;32113;42.012;24.870;2023-05-14T11:21:54;99671.84;;;16.77;65.20
46412;BME280;32113;42.012;24.870;2023-05-14T11:24:20;99671.78;;;16.80;64.96
46412;BME280;32113;42.012;24.870;2023-05-14T11:26:46;99668.28;;;16.81;64.80
46412;BME280;32113;42.012;24.870;2023-05-14T11:29:11;99673.44;;;16.83;65.54
46412;BME280;32113;42.012;24.870;2023-05-14T11:31:36;99671.59;;;16.86;64.57
46412;BME280;32113;42.012;24.870;2023-05-14T11:34:02;99668.94;;;16.89;64.55
46412;BME280;32113;42.012;24.870;2023-05-14T11:36:29;99680.06;;;16.93;65.83
46412;BME280;32113;42.012;24.870;2023-05-14T11:38:55;99678.47;;;16.89;64.72
46412;BME280;32113;42.012;24.870;2023-05-14T11:41:20;99674.13;;;16.89;65.09
46412;BME280;32113;42.012;24.870;2023-05-14T11:43:46;99660.22;;;16.92;65.02
46412;BME280;32113;42.012;24.870;2023-05-14T11:46:15;99659.25;;;16.96;64.34
46412;BME280;32113;42.012;24.870;2023-05-14T11:48:42;99655.88;;;16.94;65.10
46412;BME280;32113;42.012;24.870;2023-05-14T11:51:07;99662.81;;;16.92;66.21
46412;BME280;32113;42.012;24.870;2023-05-14T11:53:32;99659.44;;;16.90;66.14
46412;BME280;32113;42.012;24.870;2023-05-14T11:55:58;99673.22;;;16.90;66.27
46412;BME280;32113;42.012;24.870;2023-05-14T11:58:24;99681.94;;;16.88;67.36
46412;BME280;32113;42.012;24.870;2023-05-14T12:00:49;99679.44;;;16.85;67.01
46412;BME280;32113;42.012;24.870;2023-05-14T12:03:15;99682.91;;;16.84;66.31
46412;BME280;32113;42.012;24.870;2023-05-14T12:08:21;99688.03;;;16.85;64.55
46412;BME280;32113;42.012;24.870;2023-05-14T12:10:47;99681.19;;;16.83;65.37
46412;BME280;32113;42.012;24.870;2023-05-14T12:13:15;99675.91;;;16.87;64.20
46412;BME280;32113;42.012;24.870;2023-05-14T12:15:45;99666.34;;;16.89;63.01
46412;BME280;32113;42.012;24.870;2023-05-14T12:18:11;99667.28;;;16.87;63.45
46412;BME280;32113;42.012;24.870;2023-05-14T12:20:36;99674.25;;;16.85;65.10
46412;BME280;32113;42.012;24.870;2023-05-14T12:23:01;99677.81;;;16.80;64.62
46412;BME280;32113;42.012;24.870;2023-05-14T12:25:26;99665.63;;;16.84;64.56
46412;BME280;32113;42.012;24.870;2023-05-14T12:27:53;99654.34;;;16.85;65.10
46412;BME280;32113;42.012;24.870;2023-05-14T12:30:18;99648.25;;;16.88;65.61
46412;BME280;32113;42.012;24.870;2023-05-14T12:32:44;99644.63;;;16.93;64.73
46412;BME280;32113;42.012;24.870;2023-05-14T12:35:09;99637.63;;;16.97;65.01
46412;BME280;32113;42.012;24.870;2023-05-14T12:37:35;99639.41;;;16.95;63.94
46412;BME280;32113;42.012;24.870;2023-05-14T12:40:02;99630.81;;;16.93;63.46
46412;BME280;32113;42.012;24.870;2023-05-14T12:42:28;99623.97;;;16.90;65.03
46412;BME280;32113;42.012;24.870;2023-05-14T12:44:53;99619.59;;;16.94;64.46
46412;BME280;32113;42.012;24.870;2023-05-14T12:47:18;99603.81;;;17.02;63.57
46412;BME280;32113;42.012;24.870;2023-05-14T12:49:44;99612.78;;;16.90;64.04
46412;BME280;32113;42.012;24.870;2023-05-14T12:52:09;99614.91;;;16.75;64.30
46412;BME280;32113;42.012;24.870;2023-05-14T12:54:34;99598.72;;;16.67;65.47